Time;durP1;ratioP1;P1;durP2;ratioP2;P2;SDS_P1;SDS_P2;PMS_P1;PMS_P2;Temp;Humidity;BMP_temperature;BMP_pressure;BME280_temperature;BME280_humidity;BME280_pressure;Samples;Min_cycle;Max_cycle;Signal;HPM_P1;HPM_P2
2022/12/07 00:00:52;;;;;;;15.40;10.55;;;;;;;;;;5057823;28;20088;-71
2022/12/07 00:03:17;;;;;;;15.48;10.55;;;;;;;;;;5075448;28;20529;-71
2022/12/07 00:05:42;;;;;;;15.82;10.38;;;;;;;;;;5075124;28;20024;-71
2022/12/07 00:08:08;;;;;;;13.50;9.73;;;;;;;;;;5075403;28;20028;-71
2022/12/07 00:10:33;;;;;;;16.67;11.35;;;;;;;;;;5075389;28;20067;-71
2022/12/07 00:12:59;;;;;;;16.77;11.45;;;;;;;;;;5075239;28;20029;-71
2022/12/07 00:15:24;;;;;;;16.60;10.98;;;;;;;;;;5075259;28;20522;-71
2022/12/07 00:17:50;;;;;;;14.02;10.90;;;;;;;;;;5057176;28;20055;-72
2022/12/07 00:20:15;;;;;;;16.48;11.82;;;;;;;;;;5075171;28;20066;-71
2022/12/07 00:22:40;;;;;;;16.48;12.07;;;;;;;;;;5088990;28;20484;-71
2022/12/07 00:25:06;;;;;;;17.83;11.90;;;;;;;;;;5095254;28;20012;-71
2022/12/07 00:27:31;;;;;;;16.27;10.65;;;;;;;;;;5095278;28;20028;-71
2022/12/07 00:29:57;;;;;;;14.93;11.68;;;;;;;;;;5095215;28;20094;-71
2022/12/07 00:32:22;;;;;;;15.63;11.60;;;;;;;;;;5095018;28;20515;-72
2022/12/07 00:34:47;;;;;;;15.18;10.93;;;;;;;;;;5095213;28;20020;-71
2022/12/07 00:37:13;;;;;;;18.33;12.95;;;;;;;;;;5093893;28;20098;-71
2022/12/07 00:39:39;;;;;;;16.15;12.50;;;;;;;;;;5076717;28;20024;-71
2022/12/07 00:42:04;;;;;;;18.35;11.75;;;;;;;;;;5094783;28;20012;-70
2022/12/07 00:44:29;;;;;;;17.00;11.98;;;;;;;;;;5094908;28;20484;-70
2022/12/07 00:46:55;;;;;;;17.02;12.07;;;;;;;;;;5095101;28;20090;-71
2022/12/07 00:49:21;;;;;;;17.13;11.50;;;;;;;;;;5094848;28;20028;-70
2022/12/07 00:51:47;;;;;;;16.85;12.73;;;;;;;;;;5076533;28;20039;-70
2022/12/07 00:54:13;;;;;;;17.23;12.30;;;;;;;;;;5094585;28;20047;-70
2022/12/07 00:56:38;;;;;;;17.42;12.18;;;;;;;;;;5094771;28;20434;-70
2022/12/07 00:59:04;;;;;;;17.48;12.20;;;;;;;;;;5094544;28;20062;-70
2022/12/07 01:01:33;;;;;;;18.25;12.00;;;;;;;;;;5094632;28;20423;-71
2022/12/07 01:04:01;;;;;;;15.70;12.00;;;;;;;;;;5094569;28;20032;-70
2022/12/07 01:06:26;;;;;;;18.85;12.10;;;;;;;;;;5094671;28;20027;-71
2022/12/07 01:08:51;;;;;;;14.98;11.57;;;;;;;;;;5094625;28;20040;-70
2022/12/07 01:11:18;;;;;;;18.20;11.88;;;;;;;;;;5076436;28;20020;-70
2022/12/07 01:13:44;;;;;;;16.95;11.85;;;;;;;;;;5076130;28;20043;-70
2022/12/07 01:16:10;;;;;;;16.30;11.00;;;;;;;;;;5094563;28;20024;-70
2022/12/07 01:18:36;;;;;;;17.10;11.80;;;;;;;;;;5094110;28;20024;-71
2022/12/07 01:21:03;;;;;;;16.27;11.68;;;;;;;;;;5094381;28;20358;-71
2022/12/07 01:23:29;;;;;;;16.73;11.93;;;;;;;;;;5094458;28;20106;-71
2022/12/07 01:25:55;;;;;;;15.88;10.55;;;;;;;;;;5094464;28;20468;-71
2022/12/07 01:28:20;;;;;;;12.85;9.48;;;;;;;;;;5094425;28;20417;-70
2022/12/07 01:30:54;;;;;;;13.35;9.98;;;;;;;;;;5094525;28;20074;-70
2022/12/07 01:33:19;;;;;;;12.80;8.70;;;;;;;;;;5094100;28;20071;-70
2022/12/07 01:35:44;;;;;;;12.32;9.10;;;;;;;;;;5094215;28;20052;-71
2022/12/07 01:38:10;;;;;;;10.18;7.80;;;;;;;;;;5094050;28;20036;-71
2022/12/07 01:40:35;;;;;;;11.45;8.65;;;;;;;;;;5093826;28;20052;-71
2022/12/07 01:43:01;;;;;;;9.90;7.93;;;;;;;;;;5093986;28;20472;-70
2022/12/07 01:45:29;;;;;;;13.52;8.18;;;;;;;;;;5094012;28;20378;-71
2022/12/07 01:47:56;;;;;;;9.07;7.35;;;;;;;;;;5093567;28;20040;-70
2022/12/07 01:50:24;;;;;;;8.32;6.97;;;;;;;;;;5076023;28;20024;-70
2022/12/07 01:52:50;;;;;;;9.10;6.95;;;;;;;;;;5093867;28;20031;-70
2022/12/07 01:55:16;;;;;;;9.52;7.40;;;;;;;;;;5093921;28;20022;-71
2022/12/07 01:57:43;;;;;;;7.65;6.85;;;;;;;;;;5093798;28;20389;-70
2022/12/07 02:00:09;;;;;;;8.70;6.40;;;;;;;;;;5075614;28;20454;-70
2022/12/07 02:02:48;;;;;;;8.23;6.95;;;;;;;;;;5093916;28;20028;-70
2022/12/07 02:05:13;;;;;;;7.93;6.63;;;;;;;;;;5093760;28;20036;-71
2022/12/07 02:07:39;;;;;;;8.23;6.53;;;;;;;;;;5093848;28;20050;-70
2022/12/07 02:10:18;;;;;;;7.95;6.88;;;;;;;;;;5093766;28;20028;-69
2022/12/07 02:12:46;;;;;;;8.55;7.28;;;;;;;;;;5093911;28;20034;-71
2022/12/07 02:15:12;;;;;;;8.68;6.82;;;;;;;;;;5093798;28;20462;-72
2022/12/07 02:17:45;;;;;;;9.82;7.07;;;;;;;;;;5093472;28;20063;-71
2022/12/07 02:20:34;;;;;;;8.80;6.80;;;;;;;;;;5093553;28;20335;-72
2022/12/07 02:23:28;;;;;;;8.07;6.97;;;;;;;;;;5080149;28;20389;-71
2022/12/07 02:26:11;;;;;;;8.70;6.68;;;;;;;;;;5093661;28;20028;-71
2022/12/07 02:28:37;;;;;;;10.30;6.82;;;;;;;;;;5093605;28;20114;-70
2022/12/07 02:31:05;;;;;;;9.23;7.15;;;;;;;;;;5093347;28;20109;-71
2022/12/07 02:33:36;;;;;;;8.80;7.13;;;;;;;;;;5093504;28;20035;-70
2022/12/07 02:36:04;;;;;;;10.45;8.18;;;;;;;;;;5092819;28;20034;-70
2022/12/07 02:38:43;;;;;;;10.98;7.57;;;;;;;;;;5092275;28;20090;-70
2022/12/07 02:41:12;;;;;;;11.80;7.63;;;;;;;;;;5093461;28;20028;-70
2022/12/07 02:43:46;;;;;;;10.40;7.75;;;;;;;;;;5093522;28;20016;-70
2022/12/07 02:46:17;;;;;;;13.63;8.00;;;;;;;;;;5093333;28;20070;-70
2022/12/07 02:48:43;;;;;;;10.63;8.43;;;;;;;;;;5093490;28;20028;-70
2022/12/07 02:51:08;;;;;;;10.93;8.27;;;;;;;;;;5093438;28;20437;-69
2022/12/07 02:53:38;;;;;;;10.93;8.93;;;;;;;;;;5093452;28;20056;-70
2022/12/07 02:56:26;;;;;;;12.23;8.68;;;;;;;;;;5093275;28;20040;-69
2022/12/07 02:59:10;;;;;;;11.68;7.93;;;;;;;;;;5093196;28;20020;-69
2022/12/07 03:01:49;;;;;;;11.95;9.05;;;;;;;;;;5096887;28;20036;-69
2022/12/07 03:04:30;;;;;;;12.43;8.65;;;;;;;;;;5078710;28;20020;-70
2022/12/07 03:06:55;;;;;;;;;;;;;;;;;;5097082;28;20040;-70
2022/12/07 03:09:25;;;;;;;10.55;7.38;;;;;;;;;;5096883;28;19904;-69
2022/12/07 03:11:51;;;;;;;;;;;;;;;;;;5097309;28;20024;-69
2022/12/07 03:14:20;;;;;;;11.32;7.68;;;;;;;;;;5096809;28;20331;-70
2022/12/07 03:16:57;;;;;;;10.60;7.10;;;;;;;;;;5096736;28;20478;-70
2022/12/07 03:19:24;;;;;;;10.63;8.05;;;;;;;;;;5096673;28;20081;-70
2022/12/07 03:21:57;;;;;;;13.05;7.72;;;;;;;;;;5096611;28;20021;-69
2022/12/07 03:24:26;;;;;;;10.50;7.63;;;;;;;;;;5096636;28;20612;-69
2022/12/07 03:26:53;;;;;;;10.55;7.72;;;;;;;;;;5096522;28;20402;-69
2022/12/07 03:29:25;;;;;;;10.73;7.75;;;;;;;;;;5096295;28;20418;-71
2022/12/07 03:32:29;;;;;;;9.85;7.25;;;;;;;;;;5096320;28;20032;-71
2022/12/07 03:35:03;;;;;;;8.57;6.90;;;;;;;;;;4994666;28;20027;-71
2022/12/07 03:37:47;;;;;;;10.20;7.05;;;;;;;;;;4982573;28;20130;-71
2022/12/07 03:40:31;;;;;;;11.05;7.15;;;;;;;;;;5040299;28;20112;-71
2022/12/07 03:42:59;;;;;;;9.98;6.65;;;;;;;;;;5075672;28;20036;-71
2022/12/07 03:45:38;;;;;;;7.63;6.80;;;;;;;;;;5075638;28;20021;-71
2022/12/07 03:48:10;;;;;;;8.63;7.15;;;;;;;;;;5075740;28;20032;-71
2022/12/07 03:50:40;;;;;;;9.82;7.03;;;;;;;;;;5075812;28;20040;-71
2022/12/07 03:53:11;;;;;;;9.25;7.30;;;;;;;;;;5075768;28;20033;-71
2022/12/07 03:55:39;;;;;;;9.93;7.55;;;;;;;;;;5057694;28;20062;-71
2022/12/07 03:58:07;;;;;;;10.90;7.22;;;;;;;;;;5075475;28;20024;-71
2022/12/07 04:00:32;;;;;;;7.28;6.10;;;;;;;;;;5075533;28;20032;-71
2022/12/07 04:02:58;;;;;;;6.65;5.97;;;;;;;;;;5075536;28;20347;-70
2022/12/07 04:05:23;;;;;;;8.80;5.80;;;;;;;;;;5075523;28;20617;-70
2022/12/07 04:07:48;;;;;;;6.15;5.60;;;;;;;;;;5075673;28;20431;-70
2022/12/07 04:10:14;;;;;;;8.18;6.53;;;;;;;;;;5075119;28;20028;-70
2022/12/07 04:12:39;;;;;;;6.38;5.63;;;;;;;;;;5075360;28;20048;-71
2022/12/07 04:15:05;;;;;;;8.90;5.63;;;;;;;;;;5075334;28;20044;-71
2022/12/07 04:17:30;;;;;;;7.25;5.82;;;;;;;;;;5057331;28;20028;-70
2022/12/07 04:19:56;;;;;;;7.55;6.38;;;;;;;;;;5074827;28;20115;-71
2022/12/07 04:22:21;;;;;;;9.45;7.05;;;;;;;;;;5074933;28;20020;-70
2022/12/07 04:24:47;;;;;;;8.55;6.70;;;;;;;;;;5075153;28;20344;-70
2022/12/07 04:27:12;;;;;;;8.60;6.15;;;;;;;;;;5074263;28;20016;-71
2022/12/07 04:29:37;;;;;;;8.90;6.28;;;;;;;;;;5075150;28;20039;-70
2022/12/07 04:32:03;;;;;;;9.65;7.25;;;;;;;;;;5075171;28;20086;-72
2022/12/07 04:34:28;;;;;;;9.07;7.28;;;;;;;;;;5075118;28;20020;-70
2022/12/07 04:36:54;;;;;;;7.47;6.65;;;;;;;;;;5082468;28;20038;-70
2022/12/07 04:39:21;;;;;;;10.00;6.65;;;;;;;;;;5095177;28;20424;-70
2022/12/07 04:41:46;;;;;;;11.00;7.50;;;;;;;;;;5094967;28;20070;-70
2022/12/07 04:44:14;;;;;;;9.38;7.20;;;;;;;;;;5095143;28;20024;-70
2022/12/07 04:46:39;;;;;;;7.43;6.65;;;;;;;;;;5095073;28;20099;-70
2022/12/07 04:49:04;;;;;;;7.95;6.90;;;;;;;;;;5076917;28;20461;-72
2022/12/07 04:51:30;;;;;;;6.93;6.18;;;;;;;;;;5094693;28;20105;-70
2022/12/07 04:53:56;;;;;;;7.40;6.18;;;;;;;;;;5094998;28;20028;-70
2022/12/07 04:56:22;;;;;;;9.75;7.75;;;;;;;;;;5094681;28;20051;-70
2022/12/07 04:58:48;;;;;;;11.85;7.80;;;;;;;;;;5077119;28;20032;-69
2022/12/07 05:01:15;;;;;;;11.15;8.25;;;;;;;;;;5094690;28;20031;-70
2022/12/07 05:03:41;;;;;;;10.93;8.30;;;;;;;;;;5094768;28;20114;-70
2022/12/07 05:06:08;;;;;;;11.55;8.23;;;;;;;;;;5076700;28;20162;-70
2022/12/07 05:08:33;;;;;;;7.45;6.53;;;;;;;;;;5094764;28;20154;-70
2022/12/07 05:10:59;;;;;;;7.65;6.10;;;;;;;;;;5094729;28;20056;-70
2022/12/07 05:13:25;;;;;;;10.77;7.35;;;;;;;;;;5076624;28;20111;-69
2022/12/07 05:15:50;;;;;;;9.55;6.88;;;;;;;;;;5094684;28;20024;-70
2022/12/07 05:18:15;;;;;;;7.82;6.53;;;;;;;;;;5076223;28;20032;-69
2022/12/07 05:20:41;;;;;;;10.52;7.40;;;;;;;;;;5094450;28;20016;-69
2022/12/07 05:23:07;;;;;;;7.90;5.70;;;;;;;;;;5058865;28;20048;-69
2022/12/07 05:25:34;;;;;;;9.55;5.72;;;;;;;;;;5094921;28;20075;-69
2022/12/07 05:27:59;;;;;;;6.72;5.55;;;;;;;;;;5076447;28;20035;-70
2022/12/07 05:30:25;;;;;;;8.90;5.85;;;;;;;;;;5094419;28;20042;-70
2022/12/07 05:32:50;;;;;;;6.38;5.72;;;;;;;;;;5094275;28;20028;-70
2022/12/07 05:35:16;;;;;;;7.05;5.25;;;;;;;;;;5076400;28;20454;-69
2022/12/07 05:37:42;;;;;;;8.02;6.22;;;;;;;;;;5094057;28;20428;-70
2022/12/07 05:40:08;;;;;;;5.82;4.75;;;;;;;;;;5094429;28;20077;-70
2022/12/07 05:42:33;;;;;;;6.32;5.03;;;;;;;;;;5076224;28;20119;-71
2022/12/07 05:44:59;;;;;;;7.47;5.40;;;;;;;;;;5076224;28;20049;-69
2022/12/07 05:47:24;;;;;;;6.35;5.00;;;;;;;;;;5094241;28;20051;-71
2022/12/07 05:49:49;;;;;;;5.50;4.88;;;;;;;;;;5094101;28;20028;-71
2022/12/07 05:52:15;;;;;;;7.15;5.75;;;;;;;;;;5092995;28;20027;-72
2022/12/07 05:54:40;;;;;;;6.65;5.68;;;;;;;;;;5093424;28;20093;-71
2022/12/07 05:57:06;;;;;;;6.68;5.88;;;;;;;;;;5093191;28;20028;-71
2022/12/07 05:59:31;;;;;;;6.32;5.65;;;;;;;;;;5093507;28;20091;-71
2022/12/07 06:01:57;;;;;;;6.63;5.50;;;;;;;;;;5093015;28;20047;-72
2022/12/07 06:04:22;;;;;;;5.63;5.05;;;;;;;;;;5093093;28;20008;-73
2022/12/07 06:06:48;;;;;;;4.93;4.43;;;;;;;;;;5092993;28;20362;-72
2022/12/07 06:09:13;;;;;;;6.38;5.43;;;;;;;;;;5093407;28;20066;-72
2022/12/07 06:14:23;;;;;;;6.38;5.65;;;;;;;;;;5093206;28;20097;-71
2022/12/07 06:16:48;;;;;;;6.38;5.32;;;;;;;;;;5092944;28;20450;-72
2022/12/07 06:19:14;;;;;;;5.43;4.90;;;;;;;;;;5092785;28;20032;-70
2022/12/07 06:21:39;;;;;;;4.72;4.25;;;;;;;;;;5092417;28;20042;-68
2022/12/07 06:24:05;;;;;;;5.40;4.72;;;;;;;;;;5092496;28;20031;-71
2022/12/07 06:26:30;;;;;;;6.43;4.55;;;;;;;;;;5093077;28;20020;-73
2022/12/07 06:28:56;;;;;;;5.45;4.95;;;;;;;;;;5093065;28;20039;-70
2022/12/07 06:31:21;;;;;;;4.78;4.25;;;;;;;;;;5092624;28;20055;-69
2022/12/07 06:33:47;;;;;;;4.82;4.32;;;;;;;;;;5094349;28;20489;-70
2022/12/07 06:36:12;;;;;;;4.35;3.97;;;;;;;;;;5096953;28;20024;-71
2022/12/07 06:38:38;;;;;;;5.05;3.88;;;;;;;;;;5096799;28;20079;-73
2022/12/07 06:41:03;;;;;;;4.90;4.30;;;;;;;;;;5096801;28;20020;-72
2022/12/07 06:43:28;;;;;;;6.63;5.35;;;;;;;;;;5096223;28;20024;-72
2022/12/07 06:45:54;;;;;;;5.78;4.88;;;;;;;;;;5096292;28;20781;-72
2022/12/07 06:48:19;;;;;;;6.45;5.80;;;;;;;;;;5096386;28;20028;-72
2022/12/07 06:50:45;;;;;;;5.53;4.65;;;;;;;;;;5096828;28;20027;-72
2022/12/07 06:53:11;;;;;;;5.70;5.10;;;;;;;;;;5096494;28;20035;-72
2022/12/07 06:55:38;;;;;;;5.68;4.55;;;;;;;;;;5096712;28;20073;-72
2022/12/07 06:58:03;;;;;;;6.30;5.43;;;;;;;;;;5076848;28;20066;-72
2022/12/07 07:00:29;;;;;;;7.80;5.85;;;;;;;;;;5094965;28;20020;-72
2022/12/07 07:02:54;;;;;;;5.15;4.65;;;;;;;;;;5095527;28;20071;-72
2022/12/07 07:05:23;;;;;;;5.50;5.00;;;;;;;;;;5077492;28;20123;-72
2022/12/07 07:07:49;;;;;;;6.85;5.75;;;;;;;;;;5095490;28;20451;-71
2022/12/07 07:10:14;;;;;;;7.40;5.57;;;;;;;;;;5076394;28;20054;-71
2022/12/07 07:12:39;;;;;;;5.85;5.28;;;;;;;;;;5095047;28;20024;-71
2022/12/07 07:15:05;;;;;;;6.03;4.80;;;;;;;;;;5093235;28;20394;-71
2022/12/07 07:17:30;;;;;;;4.65;4.25;;;;;;;;;;5093237;28;20028;-71
2022/12/07 07:19:56;;;;;;;4.38;4.00;;;;;;;;;;5093089;28;20043;-71
2022/12/07 07:22:21;;;;;;;4.82;4.35;;;;;;;;;;5093458;28;20039;-71
2022/12/07 07:24:46;;;;;;;6.10;4.60;;;;;;;;;;5092921;28;20023;-71
2022/12/07 07:27:12;;;;;;;4.00;3.67;;;;;;;;;;5093820;28;20025;-72
2022/12/07 07:29:37;;;;;;;5.35;4.38;;;;;;;;;;5094429;28;20101;-71
2022/12/07 07:32:02;;;;;;;4.78;4.35;;;;;;;;;;5094621;28;20115;-71
2022/12/07 07:34:28;;;;;;;3.80;3.38;;;;;;;;;;5077055;28;20024;-71
2022/12/07 07:36:53;;;;;;;3.63;3.30;;;;;;;;;;5094480;28;20040;-71
2022/12/07 07:39:19;;;;;;;4.22;3.83;;;;;;;;;;5076820;28;20043;-71
2022/12/07 07:41:44;;;;;;;4.63;4.00;;;;;;;;;;5094982;28;20028;-71
2022/12/07 07:44:13;;;;;;;3.42;3.13;;;;;;;;;;5076840;28;20045;-71
2022/12/07 07:46:38;;;;;;;3.85;3.65;;;;;;;;;;5094479;28;20061;-71
2022/12/07 07:49:03;;;;;;;3.72;3.42;;;;;;;;;;5094562;28;20386;-71
2022/12/07 07:51:29;;;;;;;5.82;4.53;;;;;;;;;;5095107;28;20032;-71
2022/12/07 07:53:54;;;;;;;4.10;3.67;;;;;;;;;;5077690;28;20028;-71
2022/12/07 07:56:19;;;;;;;5.10;4.38;;;;;;;;;;5095743;28;20039;-72
2022/12/07 07:58:45;;;;;;;6.40;5.63;;;;;;;;;;5094628;28;20027;-71
2022/12/07 08:01:10;;;;;;;5.38;4.68;;;;;;;;;;5095610;28;20048;-71
2022/12/07 08:03:35;;;;;;;7.70;6.05;;;;;;;;;;5096042;28;20016;-71
2022/12/07 08:06:02;;;;;;;6.65;5.50;;;;;;;;;;5096055;28;20438;-71
2022/12/07 08:08:27;;;;;;;9.30;7.60;;;;;;;;;;5095647;28;20032;-71
2022/12/07 08:10:53;;;;;;;7.53;6.15;;;;;;;;;;5095428;28;20039;-71
2022/12/07 08:13:18;;;;;;;7.28;5.60;;;;;;;;;;5095446;28;20453;-71
2022/12/07 08:15:44;;;;;;;9.20;7.43;;;;;;;;;;5077275;28;20035;-70
2022/12/07 08:18:10;;;;;;;8.27;7.20;;;;;;;;;;5095168;28;20024;-71
2022/12/07 08:20:36;;;;;;;8.18;6.75;;;;;;;;;;5095296;28;20016;-70
2022/12/07 08:23:02;;;;;;;12.52;7.65;;;;;;;;;;5095560;28;20054;-71
2022/12/07 08:25:28;;;;;;;8.73;6.97;;;;;;;;;;5095515;28;20071;-70
2022/12/07 08:27:53;;;;;;;8.10;6.20;;;;;;;;;;5095117;28;20032;-71
2022/12/07 08:30:19;;;;;;;8.07;6.88;;;;;;;;;;5076764;28;20047;-70
2022/12/07 08:32:45;;;;;;;9.52;7.20;;;;;;;;;;5095023;28;20031;-70
2022/12/07 08:35:10;;;;;;;9.50;7.05;;;;;;;;;;5095019;28;20034;-70
2022/12/07 08:37:36;;;;;;;7.82;6.65;;;;;;;;;;5093133;28;20036;-70
2022/12/07 08:40:02;;;;;;;9.65;7.40;;;;;;;;;;5075462;28;20492;-70
2022/12/07 08:42:29;;;;;;;7.20;6.50;;;;;;;;;;5093891;28;20027;-70
2022/12/07 08:44:57;;;;;;;6.47;5.85;;;;;;;;;;5093367;28;20539;-70
2022/12/07 08:47:23;;;;;;;8.23;5.95;;;;;;;;;;5075606;28;20012;-70
2022/12/07 08:49:50;;;;;;;7.45;6.50;;;;;;;;;;5093643;28;20467;-70
2022/12/07 08:52:15;;;;;;;9.07;6.03;;;;;;;;;;5092958;28;20489;-70
2022/12/07 08:54:41;;;;;;;7.38;6.53;;;;;;;;;;5093370;28;20032;-70
2022/12/07 08:57:07;;;;;;;6.70;5.65;;;;;;;;;;5092445;28;20481;-70
2022/12/07 08:59:33;;;;;;;7.97;6.65;;;;;;;;;;5092797;28;20047;-70
2022/12/07 09:01:59;;;;;;;7.50;5.88;;;;;;;;;;5093061;28;20008;-70
2022/12/07 09:04:24;;;;;;;6.32;5.43;;;;;;;;;;5092921;28;20024;-70
2022/12/07 09:06:50;;;;;;;6.65;5.80;;;;;;;;;;5093187;28;20490;-70
2022/12/07 09:09:15;;;;;;;5.93;5.43;;;;;;;;;;5092836;28;20035;-70
2022/12/07 09:11:40;;;;;;;7.03;5.30;;;;;;;;;;5093254;28;20023;-70
2022/12/07 09:14:06;;;;;;;6.35;5.47;;;;;;;;;;5074599;28;20046;-70
2022/12/07 09:16:31;;;;;;;6.15;5.35;;;;;;;;;;5092773;28;20150;-70
2022/12/07 09:18:56;;;;;;;6.35;5.28;;;;;;;;;;5092792;28;20035;-70
2022/12/07 09:21:22;;;;;;;5.53;5.00;;;;;;;;;;5093074;28;20024;-70
2022/12/07 09:23:47;;;;;;;5.53;4.18;;;;;;;;;;5092723;28;20024;-70
2022/12/07 09:26:12;;;;;;;4.50;4.10;;;;;;;;;;5092930;28;20099;-70
2022/12/07 09:28:38;;;;;;;4.72;4.35;;;;;;;;;;5092891;28;20039;-70
2022/12/07 09:31:05;;;;;;;4.65;4.25;;;;;;;;;;5092639;28;20378;-70
2022/12/07 09:33:31;;;;;;;5.68;5.18;;;;;;;;;;5074554;28;20496;-70
2022/12/07 09:35:56;;;;;;;4.75;4.30;;;;;;;;;;5092820;28;20120;-70
2022/12/07 09:38:23;;;;;;;3.88;3.58;;;;;;;;;;5092578;28;20448;-70
2022/12/07 09:40:48;;;;;;;4.00;3.70;;;;;;;;;;5092761;28;20047;-70
2022/12/07 09:43:15;;;;;;;4.38;4.00;;;;;;;;;;5092493;28;20385;-72
2022/12/07 09:45:40;;;;;;;4.47;4.10;;;;;;;;;;5092609;28;20020;-71
2022/12/07 09:48:13;;;;;;;4.28;3.88;;;;;;;;;;5092692;28;20112;-71
2022/12/07 09:50:39;;;;;;;5.43;4.82;;;;;;;;;;5092706;28;20060;-71
2022/12/07 09:53:08;;;;;;;5.00;4.50;;;;;;;;;;5092679;28;20066;-71
2022/12/07 09:55:36;;;;;;;4.35;3.95;;;;;;;;;;5092474;28;20504;-71
2022/12/07 09:58:01;;;;;;;5.82;5.10;;;;;;;;;;5092059;28;20024;-72
2022/12/07 10:00:28;;;;;;;4.85;4.45;;;;;;;;;;5092298;28;20069;-72
2022/12/07 10:02:57;;;;;;;4.90;4.38;;;;;;;;;;5074103;28;20012;-72
2022/12/07 10:05:37;;;;;;;5.80;5.30;;;;;;;;;;5092632;28;20024;-71
2022/12/07 10:08:03;;;;;;;5.40;4.90;;;;;;;;;;5092645;28;20080;-72
2022/12/07 10:10:32;;;;;;;6.57;5.97;;;;;;;;;;5096147;28;20113;-72
2022/12/07 10:12:58;;;;;;;6.87;6.23;;;;;;;;;;5096042;28;20182;-72
2022/12/07 10:15:23;;;;;;;7.57;6.80;;;;;;;;;;5096651;28;20059;-72
2022/12/07 10:17:50;;;;;;;6.63;5.95;;;;;;;;;;5096515;28;20119;-72
2022/12/07 10:20:24;;;;;;;6.43;5.82;;;;;;;;;;5096558;28;20023;-72
2022/12/07 10:22:57;;;;;;;7.80;5.95;;;;;;;;;;5095934;28;20020;-73
2022/12/07 10:25:25;;;;;;;8.55;7.65;;;;;;;;;;5096278;28;20522;-73
2022/12/07 10:27:58;;;;;;;8.07;7.32;;;;;;;;;;5096439;28;20027;-73
2022/12/07 10:30:23;;;;;;;10.30;8.48;;;;;;;;;;5096060;28;20107;-73
2022/12/07 10:32:48;;;;;;;11.77;8.52;;;;;;;;;;5078235;28;20416;-71
2022/12/07 10:35:24;;;;;;;10.77;8.50;;;;;;;;;;5095667;28;20039;-71
2022/12/07 10:37:51;;;;;;;12.38;8.90;;;;;;;;;;5094455;28;20174;-71
2022/12/07 10:40:36;;;;;;;9.57;8.55;;;;;;;;;;5094594;28;20482;-72
2022/12/07 10:43:02;;;;;;;12.07;9.52;;;;;;;;;;5094784;28;20034;-71
2022/12/07 10:45:28;;;;;;;12.07;9.90;;;;;;;;;;5094736;28;20369;-71
2022/12/07 10:48:08;;;;;;;13.05;9.32;;;;;;;;;;5094585;28;20099;-71
2022/12/07 10:50:52;;;;;;;14.77;10.27;;;;;;;;;;5094581;28;20058;-71
2022/12/07 10:53:23;;;;;;;11.18;8.65;;;;;;;;;;5094585;28;20039;-71
2022/12/07 10:55:49;;;;;;;9.63;8.63;;;;;;;;;;5094577;28;20146;-71
2022/12/07 10:58:22;;;;;;;11.95;9.02;;;;;;;;;;5094371;28;20111;-71
2022/12/07 11:00:50;;;;;;;12.35;10.25;;;;;;;;;;5094201;28;20028;-71
2022/12/07 11:03:34;;;;;;;11.07;9.27;;;;;;;;;;5094115;28;20062;-71
2022/12/07 11:05:59;;;;;;;9.95;7.50;;;;;;;;;;5094503;28;20157;-71
2022/12/07 11:08:58;;;;;;;7.50;6.82;;;;;;;;;;5085820;28;20111;-71
2022/12/07 11:11:31;;;;;;;7.65;6.00;;;;;;;;;;5060599;28;20537;-71
2022/12/07 11:14:01;;;;;;;6.97;6.07;;;;;;;;;;5094594;28;20047;-71
2022/12/07 11:16:27;;;;;;;;;;;;;;;;;;5075563;28;20074;-71
2022/12/07 11:19:10;;;;;;;7.85;6.93;;;;;;;;;;5093694;28;19908;-71
2022/12/07 11:21:51;;;;;;;4.72;4.28;;;;;;;;;;5075081;28;20385;-71
2022/12/07 11:24:25;;;;;;;6.47;5.57;;;;;;;;;;5093878;28;20042;-71
2022/12/07 11:27:16;;;;;;;7.57;6.65;;;;;;;;;;5093540;28;20385;-71
2022/12/07 11:29:42;;;;;;;8.70;7.07;;;;;;;;;;5094002;28;20042;-71
2022/12/07 11:32:22;;;;;;;8.00;7.20;;;;;;;;;;5094073;28;20111;-71
2022/12/07 11:34:57;;;;;;;7.53;6.63;;;;;;;;;;5093410;28;20035;-71
2022/12/07 11:37:29;;;;;;;9.37;7.43;;;;;;;;;;5051978;28;1208380;-71
2022/12/07 11:39:59;;;;;;;8.60;6.22;;;;;;;;;;5094686;28;20024;-71
2022/12/07 11:42:27;;;;;;;8.13;6.30;;;;;;;;;;5094649;28;20073;-71
2022/12/07 11:45:09;;;;;;;7.20;5.75;;;;;;;;;;5094963;28;20386;-71
2022/12/07 11:47:45;;;;;;;10.68;7.60;;;;;;;;;;5094732;28;20024;-71
2022/12/07 11:50:21;;;;;;;8.75;6.55;;;;;;;;;;5094308;28;20067;-70
2022/12/07 11:52:52;;;;;;;11.13;8.43;;;;;;;;;;5094784;28;20034;-71
2022/12/07 11:55:41;;;;;;;11.77;8.77;;;;;;;;;;5093863;28;20470;-71
2022/12/07 11:58:30;;;;;;;8.50;6.75;;;;;;;;;;5077824;28;20138;-71
2022/12/07 12:01:05;;;;;;;11.85;8.05;;;;;;;;;;5062223;28;20093;-71
2022/12/07 12:03:33;;;;;;;9.82;6.63;;;;;;;;;;5090897;28;20359;-71
2022/12/07 12:05:58;;;;;;;7.57;5.85;;;;;;;;;;5090106;28;20015;-71
2022/12/07 12:08:23;;;;;;;6.93;5.60;;;;;;;;;;5071847;28;20051;-70
2022/12/07 12:10:55;;;;;;;8.75;6.10;;;;;;;;;;5090465;28;20505;-71
2022/12/07 12:13:27;;;;;;;6.82;5.75;;;;;;;;;;5090410;28;20040;-71
2022/12/07 12:16:06;;;;;;;8.73;6.05;;;;;;;;;;5090196;28;20552;-71
2022/12/07 12:18:38;;;;;;;8.82;5.45;;;;;;;;;;5090063;28;20430;-70
2022/12/07 12:21:06;;;;;;;7.45;5.38;;;;;;;;;;5089979;28;20028;-71
2022/12/07 12:23:31;;;;;;;8.93;6.18;;;;;;;;;;5090249;28;20016;-70
2022/12/07 12:25:59;;;;;;;8.70;6.43;;;;;;;;;;5090108;28;20474;-70
2022/12/07 12:28:47;;;;;;;5.63;4.95;;;;;;;;;;5090147;28;20114;-70
2022/12/07 12:31:14;;;;;;;12.52;7.57;;;;;;;;;;5081447;28;20078;-70
2022/12/07 12:33:44;;;;;;;9.40;6.38;;;;;;;;;;5071808;28;20668;-70
2022/12/07 12:36:18;;;;;;;6.85;5.13;;;;;;;;;;5089438;28;20028;-70
2022/12/07 12:39:02;;;;;;;9.18;6.63;;;;;;;;;;5090044;28;20044;-71
2022/12/07 12:41:37;;;;;;;7.47;5.75;;;;;;;;;;5090453;28;20066;-71
2022/12/07 12:44:03;;;;;;;10.68;7.88;;;;;;;;;;5090145;28;20028;-71
2022/12/07 12:46:28;;;;;;;9.23;6.60;;;;;;;;;;5071513;28;20484;-71
2022/12/07 12:48:54;;;;;;;8.98;6.75;;;;;;;;;;5089759;28;20389;-70
2022/12/07 12:51:40;;;;;;;6.22;5.07;;;;;;;;;;5089539;28;20027;-76
2022/12/07 12:54:10;;;;;;;6.75;5.28;;;;;;;;;;5071011;28;20048;-71
2022/12/07 12:56:41;;;;;;;4.00;2.72;;;;;;;;;;5089364;28;20074;-71
2022/12/07 12:59:22;;;;;;;9.05;6.43;;;;;;;;;;5089464;28;20036;-71
2022/12/07 13:01:48;;;;;;;10.07;6.10;;;;;;;;;;5089657;28;20385;-71
2022/12/07 13:04:24;;;;;;;8.85;6.20;;;;;;;;;;5088968;28;20109;-71
2022/12/07 13:06:50;;;;;;;8.38;5.80;;;;;;;;;;5089080;28;20036;-71
2022/12/07 13:09:23;;;;;;;9.52;6.82;;;;;;;;;;5089573;28;20054;-71
2022/12/07 13:11:54;;;;;;;7.18;5.45;;;;;;;;;;5089437;28;20497;-71
2022/12/07 13:14:19;;;;;;;;;;;;;;;;;;5091109;28;20028;-72
2022/12/07 13:16:45;;;;;;;5.77;4.53;;;;;;;;;;5091672;28;20261;-71
2022/12/07 13:19:28;;;;;;;7.18;4.78;;;;;;;;;;5093444;28;20043;-71
2022/12/07 13:21:54;;;;;;;6.40;5.20;;;;;;;;;;5094020;28;20031;-71
2022/12/07 13:24:19;;;;;;;6.32;5.63;;;;;;;;;;5093046;28;20016;-71
2022/12/07 13:26:45;;;;;;;7.47;6.43;;;;;;;;;;5076423;28;20056;-73
2022/12/07 13:29:17;;;;;;;7.78;5.65;;;;;;;;;;5094046;28;20024;-71
2022/12/07 13:31:50;;;;;;;6.88;5.63;;;;;;;;;;5092326;28;20465;-71
2022/12/07 13:34:34;;;;;;;7.90;5.75;;;;;;;;;;5093787;28;20032;-71
2022/12/07 13:37:01;;;;;;;8.13;5.85;;;;;;;;;;5075693;28;20040;-71
2022/12/07 13:39:27;;;;;;;12.05;7.38;;;;;;;;;;5094474;28;20035;-71
2022/12/07 13:41:55;;;;;;;9.85;6.57;;;;;;;;;;5094081;28;20020;-71
2022/12/07 13:44:21;;;;;;;7.53;5.85;;;;;;;;;;5093424;28;20038;-71
2022/12/07 13:47:04;;;;;;;7.05;5.47;;;;;;;;;;5093879;28;20032;-71
2022/12/07 13:49:31;;;;;;;7.10;5.47;;;;;;;;;;5094408;28;20028;-71
2022/12/07 13:52:14;;;;;;;8.98;6.15;;;;;;;;;;5075643;28;20047;-71
2022/12/07 13:54:43;;;;;;;10.95;7.13;;;;;;;;;;5094086;28;20032;-71
2022/12/07 13:57:09;;;;;;;9.18;6.68;;;;;;;;;;5094044;28;20386;-71
2022/12/07 13:59:37;;;;;;;7.85;6.30;;;;;;;;;;5093577;28;20035;-71
2022/12/07 14:02:02;;;;;;;6.65;5.88;;;;;;;;;;5094267;28;20031;-71
2022/12/07 14:04:35;;;;;;;8.43;6.18;;;;;;;;;;5093677;28;20107;-73
2022/12/07 14:07:15;;;;;;;6.88;6.18;;;;;;;;;;5093547;28;20038;-71
2022/12/07 14:09:41;;;;;;;6.15;5.55;;;;;;;;;;5093843;28;20028;-63
2022/12/07 14:12:07;;;;;;;9.25;6.82;;;;;;;;;;5093701;28;20016;-63
2022/12/07 14:14:32;;;;;;;9.73;8.05;;;;;;;;;;5093782;28;20032;-63
2022/12/07 14:17:19;;;;;;;8.82;6.65;;;;;;;;;;5075427;28;20447;-64
2022/12/07 14:19:47;;;;;;;8.63;7.05;;;;;;;;;;5093616;28;20181;-64
2022/12/07 14:22:36;;;;;;;8.82;7.72;;;;;;;;;;5091860;28;20023;-64
2022/12/07 14:25:13;;;;;;;7.75;6.13;;;;;;;;;;5084303;28;20382;-63
2022/12/07 14:27:46;;;;;;;8.77;6.35;;;;;;;;;;5112413;28;20385;-64
2022/12/07 14:30:15;;;;;;;7.85;5.82;;;;;;;;;;5113414;28;20570;-64
2022/12/07 14:32:42;;;;;;;6.88;5.55;;;;;;;;;;5113035;28;20012;-64
2022/12/07 14:35:08;;;;;;;8.20;6.50;;;;;;;;;;5094186;28;20541;-64
2022/12/07 14:37:33;;;;;;;8.63;6.28;;;;;;;;;;5112057;28;20143;-64
2022/12/07 14:39:59;;;;;;;9.30;6.85;;;;;;;;;;5112149;28;20047;-64
2022/12/07 14:42:27;;;;;;;10.98;8.05;;;;;;;;;;5112434;28;20659;-64
2022/12/07 14:44:52;;;;;;;11.68;8.35;;;;;;;;;;5112446;28;20024;-64
2022/12/07 14:47:17;;;;;;;9.50;7.25;;;;;;;;;;5093981;28;20374;-64
2022/12/07 14:49:43;;;;;;;10.32;7.43;;;;;;;;;;5112421;28;20036;-64